カラチ の空港の天気 - METARとTAF

ジンナー国際空港(カラチ) ( OPKC / KHI ) - パキスタン Karachi
飛行場実況気象(Metar)
観測時間04/26 15:55 PKT (04/26 10:55 UTC)
風向・風速西南西 7m/s
視程6000m
天気現象
なし
気温33℃
湿度56%
気圧1004hPa
METAROPKC 261055Z 24013KT 6000 NSC 33/23 Q1004 NOSIG
過去の天気等 Google飛行場航空写真 Wunderground天気予報

過去48時間のMETAR

飛行場予報(TAF)
発表時間: 4/26 09:00 PKT (4/26 04:00 UTC)
予報対象時間: 26日11時 PKT ~ 27日17時 PKT
風向・風速西南西 5m/s 瞬間風速 10m/s
視程6,000m
なし
26日23時 PKT から
風向・風速西 4m/s
視程5,000m
天気現象煙霧
なし
27日6時 PKT ~ 27日10時 PKT に一時的に
風向・風速西 4m/s
視程4,000m
天気現象
全天の4割程度の雲 雲底高度 610m
27日11時 PKT から
視程7,000m
なし
TAF OPKC 260400Z 2606/2712 24010G20KT 6000 NSC
FM261800 27008KT 5000 HZ NSC
TEMPO 2701/2705 27008KT 4000 FU SCT020
FM270600 2410G20KT 7000 NSC